sensor_id;sensor_type;location;lat;lon;timestamp;P1;durP1;ratioP1;P2;durP2;ratioP2
45944;SDS011;31655;48.972;10.686;2023-09-19T00:00:36;3.80;;;2.78;;
45944;SDS011;31655;48.972;10.686;2023-09-19T00:03:02;6.07;;;3.08;;
45944;SDS011;31655;48.972;10.686;2023-09-19T00:05:29;5.50;;;3.17;;
45944;SDS011;31655;48.972;10.686;2023-09-19T00:08:00;3.47;;;2.63;;
45944;SDS011;31655;48.972;10.686;2023-09-19T00:10:26;6.88;;;3.38;;
45944;SDS011;31655;48.972;10.686;2023-09-19T00:12:56;3.47;;;2.75;;
45944;SDS011;31655;48.972;10.686;2023-09-19T00:15:26;6.15;;;3.33;;
45944;SDS011;31655;48.972;10.686;2023-09-19T00:17:55;5.30;;;3.35;;
45944;SDS011;31655;48.972;10.686;2023-09-19T00:20:21;7.35;;;3.78;;
45944;SDS011;31655;48.972;10.686;2023-09-19T00:22:48;8.10;;;3.67;;
45944;SDS011;31655;48.972;10.686;2023-09-19T00:25:16;7.70;;;4.90;;
45944;SDS011;31655;48.972;10.686;2023-09-19T00:27:42;10.57;;;4.93;;
45944;SDS011;31655;48.972;10.686;2023-09-19T00:30:10;12.50;;;4.72;;
45944;SDS011;31655;48.972;10.686;2023-09-19T00:32:41;6.15;;;3.97;;
45944;SDS011;31655;48.972;10.686;2023-09-19T00:35:08;5.82;;;3.88;;
45944;SDS011;31655;48.972;10.686;2023-09-19T00:37:35;9.27;;;4.70;;
45944;SDS011;31655;48.972;10.686;2023-09-19T00:40:02;8.98;;;4.68;;
45944;SDS011;31655;48.972;10.686;2023-09-19T00:42:32;7.05;;;3.90;;
45944;SDS011;31655;48.972;10.686;2023-09-19T00:44:58;8.88;;;4.88;;
45944;SDS011;31655;48.972;10.686;2023-09-19T00:47:28;7.63;;;5.65;;
45944;SDS011;31655;48.972;10.686;2023-09-19T00:49:54;7.72;;;4.50;;
45944;SDS011;31655;48.972;10.686;2023-09-19T00:52:21;10.65;;;4.80;;
45944;SDS011;31655;48.972;10.686;2023-09-19T00:54:48;9.27;;;4.72;;
45944;SDS011;31655;48.972;10.686;2023-09-19T00:57:15;6.13;;;4.03;;
45944;SDS011;31655;48.972;10.686;2023-09-19T00:59:42;5.38;;;3.75;;
45944;SDS011;31655;48.972;10.686;2023-09-19T01:02:08;7.00;;;3.65;;
45944;SDS011;31655;48.972;10.686;2023-09-19T01:04:34;7.03;;;3.63;;
45944;SDS011;31655;48.972;10.686;2023-09-19T01:07:00;7.88;;;3.72;;
45944;SDS011;31655;48.972;10.686;2023-09-19T01:09:26;6.50;;;3.70;;
45944;SDS011;31655;48.972;10.686;2023-09-19T01:11:53;5.78;;;3.67;;
45944;SDS011;31655;48.972;10.686;2023-09-19T01:17:31;5.45;;;4.03;;
45944;SDS011;31655;48.972;10.686;2023-09-19T01:20:09;25.90;;;9.70;;
45944;SDS011;31655;48.972;10.686;2023-09-19T01:22:55;9.82;;;5.28;;
45944;SDS011;31655;48.972;10.686;2023-09-19T01:30:56;4.72;;;3.63;;
45944;SDS011;31655;48.972;10.686;2023-09-19T01:33:26;5.97;;;3.30;;
45944;SDS011;31655;48.972;10.686;2023-09-19T01:35:52;7.22;;;3.15;;
45944;SDS011;31655;48.972;10.686;2023-09-19T01:38:20;3.47;;;2.63;;
45944;SDS011;31655;48.972;10.686;2023-09-19T01:40:51;4.28;;;2.88;;
45944;SDS011;31655;48.972;10.686;2023-09-19T01:43:34;3.67;;;2.67;;
45944;SDS011;31655;48.972;10.686;2023-09-19T01:49:03;5.78;;;2.95;;
45944;SDS011;31655;48.972;10.686;2023-09-19T01:52:03;4.45;;;2.85;;
45944;SDS011;31655;48.972;10.686;2023-09-19T01:54:48;3.95;;;2.53;;
45944;SDS011;31655;48.972;10.686;2023-09-19T01:57:29;8.75;;;3.10;;
45944;SDS011;31655;48.972;10.686;2023-09-19T02:00:01;4.38;;;2.83;;
45944;SDS011;31655;48.972;10.686;2023-09-19T02:02:39;6.25;;;2.92;;
45944;SDS011;31655;48.972;10.686;2023-09-19T02:05:07;5.68;;;2.30;;
45944;SDS011;31655;48.972;10.686;2023-09-19T02:07:33;5.28;;;2.13;;
45944;SDS011;31655;48.972;10.686;2023-09-19T02:10:02;3.63;;;2.15;;
45944;SDS011;31655;48.972;10.686;2023-09-19T02:12:30;2.35;;;1.52;;
45944;SDS011;31655;48.972;10.686;2023-09-19T02:14:57;5.55;;;2.05;;
45944;SDS011;31655;48.972;10.686;2023-09-19T02:17:24;4.82;;;1.85;;
45944;SDS011;31655;48.972;10.686;2023-09-19T02:19:53;3.80;;;1.73;;
45944;SDS011;31655;48.972;10.686;2023-09-19T02:22:20;3.60;;;2.03;;
45944;SDS011;31655;48.972;10.686;2023-09-19T02:24:46;2.15;;;1.75;;
45944;SDS011;31655;48.972;10.686;2023-09-19T02:27:13;2.15;;;1.63;;
45944;SDS011;31655;48.972;10.686;2023-09-19T02:29:40;3.60;;;1.67;;
45944;SDS011;31655;48.972;10.686;2023-09-19T02:32:06;3.35;;;1.75;;
45944;SDS011;31655;48.972;10.686;2023-09-19T02:34:34;2.75;;;1.35;;
45944;SDS011;31655;48.972;10.686;2023-09-19T02:37:04;2.47;;;1.33;;
45944;SDS011;31655;48.972;10.686;2023-09-19T02:39:31;2.20;;;1.25;;
45944;SDS011;31655;48.972;10.686;2023-09-19T02:41:57;4.53;;;1.58;;
45944;SDS011;31655;48.972;10.686;2023-09-19T02:44:22;2.15;;;1.70;;
45944;SDS011;31655;48.972;10.686;2023-09-19T02:46:49;2.45;;;1.63;;
45944;SDS011;31655;48.972;10.686;2023-09-19T02:49:15;2.55;;;1.60;;
45944;SDS011;31655;48.972;10.686;2023-09-19T02:51:42;2.53;;;1.75;;
45944;SDS011;31655;48.972;10.686;2023-09-19T02:54:08;3.60;;;1.60;;
45944;SDS011;31655;48.972;10.686;2023-09-19T02:56:35;2.05;;;1.30;;
45944;SDS011;31655;48.972;10.686;2023-09-19T02:59:01;4.50;;;1.55;;
45944;SDS011;31655;48.972;10.686;2023-09-19T03:01:27;2.88;;;1.30;;
45944;SDS011;31655;48.972;10.686;2023-09-19T03:03:53;5.30;;;1.40;;
45944;SDS011;31655;48.972;10.686;2023-09-19T03:06:19;1.50;;;1.25;;
45944;SDS011;31655;48.972;10.686;2023-09-19T03:08:46;1.90;;;1.60;;
45944;SDS011;31655;48.972;10.686;2023-09-19T03:11:14;4.28;;;1.80;;
45944;SDS011;31655;48.972;10.686;2023-09-19T03:13:41;3.58;;;1.75;;
45944;SDS011;31655;48.972;10.686;2023-09-19T03:16:07;4.90;;;1.85;;
45944;SDS011;31655;48.972;10.686;2023-09-19T03:18:34;2.28;;;1.52;;
45944;SDS011;31655;48.972;10.686;2023-09-19T03:21:00;3.70;;;1.92;;
45944;SDS011;31655;48.972;10.686;2023-09-19T03:23:26;5.40;;;1.75;;
45944;SDS011;31655;48.972;10.686;2023-09-19T03:25:56;8.00;;;1.95;;
45944;SDS011;31655;48.972;10.686;2023-09-19T03:28:22;4.47;;;1.73;;
45944;SDS011;31655;48.972;10.686;2023-09-19T03:31:01;3.30;;;2.05;;
45944;SDS011;31655;48.972;10.686;2023-09-19T03:33:28;3.70;;;1.63;;
45944;SDS011;31655;48.972;10.686;2023-09-19T03:35:56;3.75;;;1.77;;
45944;SDS011;31655;48.972;10.686;2023-09-19T03:38:24;2.58;;;1.55;;
45944;SDS011;31655;48.972;10.686;2023-09-19T03:40:50;5.47;;;1.65;;
45944;SDS011;31655;48.972;10.686;2023-09-19T03:43:16;3.20;;;1.50;;
45944;SDS011;31655;48.972;10.686;2023-09-19T03:45:42;4.05;;;1.85;;
45944;SDS011;31655;48.972;10.686;2023-09-19T03:48:09;2.05;;;1.35;;
45944;SDS011;31655;48.972;10.686;2023-09-19T03:50:35;3.45;;;1.60;;
45944;SDS011;31655;48.972;10.686;2023-09-19T03:53:01;4.00;;;1.75;;
45944;SDS011;31655;48.972;10.686;2023-09-19T03:55:27;2.03;;;1.60;;
45944;SDS011;31655;48.972;10.686;2023-09-19T03:57:54;5.05;;;1.40;;
45944;SDS011;31655;48.972;10.686;2023-09-19T04:00:20;3.75;;;2.08;;
45944;SDS011;31655;48.972;10.686;2023-09-19T04:02:48;5.07;;;1.70;;
45944;SDS011;31655;48.972;10.686;2023-09-19T04:05:14;3.42;;;1.52;;
45944;SDS011;31655;48.972;10.686;2023-09-19T04:07:41;4.25;;;2.08;;
45944;SDS011;31655;48.972;10.686;2023-09-19T04:10:07;4.32;;;1.85;;
45944;SDS011;31655;48.972;10.686;2023-09-19T04:12:39;4.07;;;1.40;;
45944;SDS011;31655;48.972;10.686;2023-09-19T04:15:06;2.75;;;1.58;;
45944;SDS011;31655;48.972;10.686;2023-09-19T04:17:33;1.50;;;1.40;;
45944;SDS011;31655;48.972;10.686;2023-09-19T04:19:59;3.47;;;2.53;;
45944;SDS011;31655;48.972;10.686;2023-09-19T04:22:25;3.30;;;2.13;;
45944;SDS011;31655;48.972;10.686;2023-09-19T04:24:51;7.72;;;2.15;;
45944;SDS011;31655;48.972;10.686;2023-09-19T04:27:17;3.60;;;2.33;;
45944;SDS011;31655;48.972;10.686;2023-09-19T04:29:43;2.80;;;2.45;;
45944;SDS011;31655;48.972;10.686;2023-09-19T04:32:09;5.32;;;2.50;;
45944;SDS011;31655;48.972;10.686;2023-09-19T04:34:35;4.55;;;2.33;;
45944;SDS011;31655;48.972;10.686;2023-09-19T04:37:03;3.22;;;2.28;;
45944;SDS011;31655;48.972;10.686;2023-09-19T04:39:29;4.95;;;2.50;;
45944;SDS011;31655;48.972;10.686;2023-09-19T04:41:55;4.72;;;1.90;;
45944;SDS011;31655;48.972;10.686;2023-09-19T04:44:22;4.97;;;2.42;;
45944;SDS011;31655;48.972;10.686;2023-09-19T04:46:48;4.18;;;2.53;;
45944;SDS011;31655;48.972;10.686;2023-09-19T04:49:13;2.28;;;1.85;;
45944;SDS011;31655;48.972;10.686;2023-09-19T04:51:39;3.30;;;2.03;;
45944;SDS011;31655;48.972;10.686;2023-09-19T04:54:06;4.07;;;2.47;;
45944;SDS011;31655;48.972;10.686;2023-09-19T04:56:32;3.58;;;2.08;;
45944;SDS011;31655;48.972;10.686;2023-09-19T04:58:58;2.83;;;1.73;;
45944;SDS011;31655;48.972;10.686;2023-09-19T05:01:25;4.13;;;2.63;;
45944;SDS011;31655;48.972;10.686;2023-09-19T05:03:51;2.72;;;1.80;;
45944;SDS011;31655;48.972;10.686;2023-09-19T05:06:21;4.95;;;2.10;;
45944;SDS011;31655;48.972;10.686;2023-09-19T05:08:50;2.80;;;1.95;;
45944;SDS011;31655;48.972;10.686;2023-09-19T05:11:17;2.83;;;1.95;;
45944;SDS011;31655;48.972;10.686;2023-09-19T05:13:49;3.03;;;2.30;;
45944;SDS011;31655;48.972;10.686;2023-09-19T05:16:15;6.45;;;2.25;;
45944;SDS011;31655;48.972;10.686;2023-09-19T05:18:41;5.68;;;2.95;;
45944;SDS011;31655;48.972;10.686;2023-09-19T05:21:07;4.10;;;2.33;;
45944;SDS011;31655;48.972;10.686;2023-09-19T05:23:33;3.72;;;2.10;;
45944;SDS011;31655;48.972;10.686;2023-09-19T05:25:59;4.85;;;2.58;;
45944;SDS011;31655;48.972;10.686;2023-09-19T05:28:25;3.25;;;2.30;;
45944;SDS011;31655;48.972;10.686;2023-09-19T05:30:52;5.28;;;2.42;;
45944;SDS011;31655;48.972;10.686;2023-09-19T05:33:18;2.28;;;1.70;;
45944;SDS011;31655;48.972;10.686;2023-09-19T05:35:44;2.95;;;1.58;;
45944;SDS011;31655;48.972;10.686;2023-09-19T05:38:11;4.45;;;1.98;;
45944;SDS011;31655;48.972;10.686;2023-09-19T05:40:38;2.65;;;1.45;;
45944;SDS011;31655;48.972;10.686;2023-09-19T05:43:08;4.25;;;1.85;;
45944;SDS011;31655;48.972;10.686;2023-09-19T05:45:34;3.08;;;1.77;;
45944;SDS011;31655;48.972;10.686;2023-09-19T05:48:11;3.55;;;1.58;;
45944;SDS011;31655;48.972;10.686;2023-09-19T05:50:41;2.47;;;1.60;;
45944;SDS011;31655;48.972;10.686;2023-09-19T05:53:07;2.60;;;1.73;;
45944;SDS011;31655;48.972;10.686;2023-09-19T05:55:36;3.83;;;1.33;;
45944;SDS011;31655;48.972;10.686;2023-09-19T05:58:03;2.33;;;1.60;;
45944;SDS011;31655;48.972;10.686;2023-09-19T06:00:29;2.95;;;1.67;;
45944;SDS011;31655;48.972;10.686;2023-09-19T06:02:57;3.60;;;1.60;;
45944;SDS011;31655;48.972;10.686;2023-09-19T06:05:23;2.78;;;1.65;;
45944;SDS011;31655;48.972;10.686;2023-09-19T06:07:51;2.03;;;1.20;;
45944;SDS011;31655;48.972;10.686;2023-09-19T06:10:18;2.10;;;1.42;;
45944;SDS011;31655;48.972;10.686;2023-09-19T06:12:45;1.45;;;1.35;;
45944;SDS011;31655;48.972;10.686;2023-09-19T06:15:12;2.20;;;1.25;;
45944;SDS011;31655;48.972;10.686;2023-09-19T06:17:50;3.58;;;1.60;;
45944;SDS011;31655;48.972;10.686;2023-09-19T06:20:20;1.20;;;1.10;;
45944;SDS011;31655;48.972;10.686;2023-09-19T06:22:47;3.40;;;1.63;;
45944;SDS011;31655;48.972;10.686;2023-09-19T06:25:14;2.08;;;1.42;;
45944;SDS011;31655;48.972;10.686;2023-09-19T06:27:47;2.47;;;1.42;;
45944;SDS011;31655;48.972;10.686;2023-09-19T06:30:13;3.97;;;1.75;;
45944;SDS011;31655;48.972;10.686;2023-09-19T06:32:42;1.80;;;1.63;;
45944;SDS011;31655;48.972;10.686;2023-09-19T06:35:11;3.50;;;1.77;;
45944;SDS011;31655;48.972;10.686;2023-09-19T06:37:38;4.13;;;2.03;;
45944;SDS011;31655;48.972;10.686;2023-09-19T06:40:13;3.33;;;1.73;;
45944;SDS011;31655;48.972;10.686;2023-09-19T06:43:12;2.85;;;1.70;;
45944;SDS011;31655;48.972;10.686;2023-09-19T06:45:31;3.58;;;1.60;;
45944;SDS011;31655;48.972;10.686;2023-09-19T06:47:57;5.38;;;2.22;;
45944;SDS011;31655;48.972;10.686;2023-09-19T06:50:25;2.53;;;1.40;;
45944;SDS011;31655;48.972;10.686;2023-09-19T06:52:52;2.30;;;1.60;;
45944;SDS011;31655;48.972;10.686;2023-09-19T06:55:20;1.75;;;1.48;;
45944;SDS011;31655;48.972;10.686;2023-09-19T06:57:46;4.47;;;2.50;;
45944;SDS011;31655;48.972;10.686;2023-09-19T07:00:13;2.72;;;1.45;;
45944;SDS011;31655;48.972;10.686;2023-09-19T07:03:05;2.85;;;1.65;;
45944;SDS011;31655;48.972;10.686;2023-09-19T07:05:38;6.35;;;2.28;;
45944;SDS011;31655;48.972;10.686;2023-09-19T07:08:05;2.30;;;1.73;;
45944;SDS011;31655;48.972;10.686;2023-09-19T07:10:31;2.47;;;1.83;;
45944;SDS011;31655;48.972;10.686;2023-09-19T07:13:07;3.55;;;2.38;;
45944;SDS011;31655;48.972;10.686;2023-09-19T07:15:37;4.10;;;2.00;;
45944;SDS011;31655;48.972;10.686;2023-09-19T07:18:11;4.30;;;2.58;;
45944;SDS011;31655;48.972;10.686;2023-09-19T07:20:39;6.47;;;2.47;;
45944;SDS011;31655;48.972;10.686;2023-09-19T07:23:05;3.75;;;2.28;;
45944;SDS011;31655;48.972;10.686;2023-09-19T07:25:31;4.60;;;2.85;;
45944;SDS011;31655;48.972;10.686;2023-09-19T07:27:57;6.57;;;2.65;;
45944;SDS011;31655;48.972;10.686;2023-09-19T07:30:26;4.25;;;2.47;;
45944;SDS011;31655;48.972;10.686;2023-09-19T07:32:53;2.90;;;2.47;;
45944;SDS011;31655;48.972;10.686;2023-09-19T07:35:19;5.15;;;2.50;;
45944;SDS011;31655;48.972;10.686;2023-09-19T07:37:45;6.55;;;2.25;;
45944;SDS011;31655;48.972;10.686;2023-09-19T07:40:15;5.38;;;2.72;;
45944;SDS011;31655;48.972;10.686;2023-09-19T07:42:41;3.45;;;2.03;;
45944;SDS011;31655;48.972;10.686;2023-09-19T07:45:09;7.28;;;2.20;;
45944;SDS011;31655;48.972;10.686;2023-09-19T07:47:39;2.83;;;2.10;;
45944;SDS011;31655;48.972;10.686;2023-09-19T07:50:05;4.78;;;2.35;;
45944;SDS011;31655;48.972;10.686;2023-09-19T07:52:32;5.07;;;1.73;;
45944;SDS011;31655;48.972;10.686;2023-09-19T07:54:58;3.17;;;2.20;;
45944;SDS011;31655;48.972;10.686;2023-09-19T07:57:26;3.38;;;2.30;;
45944;SDS011;31655;48.972;10.686;2023-09-19T07:59:53;3.90;;;2.25;;
45944;SDS011;31655;48.972;10.686;2023-09-19T08:02:19;5.63;;;2.40;;
45944;SDS011;31655;48.972;10.686;2023-09-19T08:04:46;4.80;;;2.65;;
45944;SDS011;31655;48.972;10.686;2023-09-19T08:07:12;4.00;;;2.40;;
45944;SDS011;31655;48.972;10.686;2023-09-19T08:09:38;3.22;;;2.67;;
45944;SDS011;31655;48.972;10.686;2023-09-19T08:12:05;4.00;;;2.05;;
45944;SDS011;31655;48.972;10.686;2023-09-19T08:14:33;3.20;;;1.73;;
45944;SDS011;31655;48.972;10.686;2023-09-19T08:16:59;1.83;;;1.73;;
45944;SDS011;31655;48.972;10.686;2023-09-19T08:19:25;2.53;;;1.63;;
45944;SDS011;31655;48.972;10.686;2023-09-19T08:21:57;5.10;;;2.08;;
45944;SDS011;31655;48.972;10.686;2023-09-19T08:24:29;2.00;;;1.55;;
45944;SDS011;31655;48.972;10.686;2023-09-19T08:26:55;3.28;;;2.00;;
45944;SDS011;31655;48.972;10.686;2023-09-19T08:29:25;1.90;;;1.70;;
45944;SDS011;31655;48.972;10.686;2023-09-19T08:31:53;3.33;;;2.00;;
45944;SDS011;31655;48.972;10.686;2023-09-19T08:34:19;2.63;;;1.90;;
45944;SDS011;31655;48.972;10.686;2023-09-19T08:36:46;5.38;;;1.98;;
45944;SDS011;31655;48.972;10.686;2023-09-19T08:39:13;2.97;;;1.80;;
45944;SDS011;31655;48.972;10.686;2023-09-19T08:41:39;2.72;;;2.30;;
45944;SDS011;31655;48.972;10.686;2023-09-19T08:44:05;2.42;;;2.00;;
45944;SDS011;31655;48.972;10.686;2023-09-19T08:46:31;3.40;;;2.17;;
45944;SDS011;31655;48.972;10.686;2023-09-19T08:49:03;4.32;;;2.13;;
45944;SDS011;31655;48.972;10.686;2023-09-19T08:51:33;2.83;;;1.95;;
45944;SDS011;31655;48.972;10.686;2023-09-19T08:54:07;2.03;;;1.73;;
45944;SDS011;31655;48.972;10.686;2023-09-19T08:56:33;4.00;;;1.77;;
45944;SDS011;31655;48.972;10.686;2023-09-19T08:59:00;2.45;;;1.75;;
45944;SDS011;31655;48.972;10.686;2023-09-19T09:01:29;1.90;;;1.40;;
45944;SDS011;31655;48.972;10.686;2023-09-19T09:03:57;2.28;;;2.08;;
45944;SDS011;31655;48.972;10.686;2023-09-19T09:06:24;4.63;;;1.50;;
45944;SDS011;31655;48.972;10.686;2023-09-19T09:08:50;3.65;;;1.60;;
45944;SDS011;31655;48.972;10.686;2023-09-19T09:11:17;4.35;;;1.65;;
45944;SDS011;31655;48.972;10.686;2023-09-19T09:13:46;2.13;;;1.33;;
45944;SDS011;31655;48.972;10.686;2023-09-19T09:16:13;3.17;;;1.58;;
45944;SDS011;31655;48.972;10.686;2023-09-19T09:18:42;2.72;;;1.60;;
45944;SDS011;31655;48.972;10.686;2023-09-19T09:21:09;2.67;;;1.63;;
45944;SDS011;31655;48.972;10.686;2023-09-19T09:23:35;6.05;;;1.50;;
45944;SDS011;31655;48.972;10.686;2023-09-19T09:26:01;2.53;;;1.30;;
45944;SDS011;31655;48.972;10.686;2023-09-19T09:28:28;3.58;;;1.42;;
45944;SDS011;31655;48.972;10.686;2023-09-19T09:30:55;6.75;;;1.52;;
45944;SDS011;31655;48.972;10.686;2023-09-19T09:33:23;3.58;;;1.30;;
45944;SDS011;31655;48.972;10.686;2023-09-19T09:40:52;3.97;;;1.30;;
45944;SDS011;31655;48.972;10.686;2023-09-19T09:43:39;2.45;;;1.27;;
45944;SDS011;31655;48.972;10.686;2023-09-19T09:46:13;2.90;;;1.13;;
45944;SDS011;31655;48.972;10.686;2023-09-19T09:49:07;2.03;;;1.15;;
45944;SDS011;31655;48.972;10.686;2023-09-19T09:51:50;1.77;;;0.85;;
45944;SDS011;31655;48.972;10.686;2023-09-19T09:54:24;6.07;;;1.30;;
45944;SDS011;31655;48.972;10.686;2023-09-19T09:56:59;2.05;;;1.10;;
45944;SDS011;31655;48.972;10.686;2023-09-19T09:59:51;2.35;;;1.20;;
45944;SDS011;31655;48.972;10.686;2023-09-19T10:02:37;3.08;;;1.13;;
45944;SDS011;31655;48.972;10.686;2023-09-19T10:07:52;1.85;;;1.00;;
45944;SDS011;31655;48.972;10.686;2023-09-19T10:10:31;6.65;;;1.67;;
45944;SDS011;31655;48.972;10.686;2023-09-19T10:13:09;2.40;;;1.38;;
45944;SDS011;31655;48.972;10.686;2023-09-19T10:15:38;3.45;;;1.73;;
45944;SDS011;31655;48.972;10.686;2023-09-19T10:18:13;2.72;;;1.30;;
45944;SDS011;31655;48.972;10.686;2023-09-19T10:20:44;3.42;;;2.17;;
45944;SDS011;31655;48.972;10.686;2023-09-19T10:23:11;3.10;;;1.73;;
45944;SDS011;31655;48.972;10.686;2023-09-19T10:25:41;1.50;;;1.40;;
45944;SDS011;31655;48.972;10.686;2023-09-19T10:28:11;2.00;;;1.20;;
45944;SDS011;31655;48.972;10.686;2023-09-19T10:30:39;4.00;;;1.67;;
45944;SDS011;31655;48.972;10.686;2023-09-19T10:33:10;2.20;;;0.90;;
45944;SDS011;31655;48.972;10.686;2023-09-19T10:35:47;1.95;;;1.17;;
45944;SDS011;31655;48.972;10.686;2023-09-19T10:38:14;2.35;;;1.60;;
45944;SDS011;31655;48.972;10.686;2023-09-19T10:40:44;2.35;;;1.50;;
45944;SDS011;31655;48.972;10.686;2023-09-19T10:43:15;2.85;;;1.55;;
45944;SDS011;31655;48.972;10.686;2023-09-19T10:45:45;2.63;;;1.33;;
45944;SDS011;31655;48.972;10.686;2023-09-19T10:48:14;3.60;;;1.05;;
45944;SDS011;31655;48.972;10.686;2023-09-19T10:53:16;3.15;;;1.20;;
45944;SDS011;31655;48.972;10.686;2023-09-19T10:55:51;4.10;;;1.30;;
45944;SDS011;31655;48.972;10.686;2023-09-19T10:58:26;3.30;;;1.45;;
45944;SDS011;31655;48.972;10.686;2023-09-19T11:00:59;4.95;;;1.50;;
45944;SDS011;31655;48.972;10.686;2023-09-19T11:03:30;1.50;;;1.00;;
45944;SDS011;31655;48.972;10.686;2023-09-19T11:06:04;5.35;;;1.77;;
45944;SDS011;31655;48.972;10.686;2023-09-19T11:14:14;2.72;;;1.70;;
45944;SDS011;31655;48.972;10.686;2023-09-19T11:20:37;2.55;;;1.55;;
45944;SDS011;31655;48.972;10.686;2023-09-19T11:30:35;3.72;;;2.08;;
45944;SDS011;31655;48.972;10.686;2023-09-19T11:36:00;2.20;;;2.00;;
45944;SDS011;31655;48.972;10.686;2023-09-19T11:44:31;6.10;;;2.53;;
45944;SDS011;31655;48.972;10.686;2023-09-19T11:46:51;5.47;;;2.58;;
45944;SDS011;31655;48.972;10.686;2023-09-19T11:49:17;2.28;;;2.08;;
45944;SDS011;31655;48.972;10.686;2023-09-19T11:51:55;3.50;;;2.28;;
45944;SDS011;31655;48.972;10.686;2023-09-19T11:54:22;3.00;;;1.95;;
45944;SDS011;31655;48.972;10.686;2023-09-19T11:56:49;2.95;;;2.00;;
45944;SDS011;31655;48.972;10.686;2023-09-19T11:59:22;2.33;;;1.90;;
45944;SDS011;31655;48.972;10.686;2023-09-19T12:01:52;4.13;;;2.20;;
45944;SDS011;31655;48.972;10.686;2023-09-19T12:04:32;4.18;;;1.88;;
45944;SDS011;31655;48.972;10.686;2023-09-19T12:06:58;3.63;;;1.42;;
45944;SDS011;31655;48.972;10.686;2023-09-19T12:09:24;4.57;;;2.05;;
45944;SDS011;31655;48.972;10.686;2023-09-19T12:11:50;2.85;;;1.88;;
45944;SDS011;31655;48.972;10.686;2023-09-19T12:14:23;2.20;;;1.98;;
45944;SDS011;31655;48.972;10.686;2023-09-19T12:16:51;5.40;;;1.90;;
45944;SDS011;31655;48.972;10.686;2023-09-19T12:19:20;2.83;;;1.60;;
45944;SDS011;31655;48.972;10.686;2023-09-19T12:22:01;2.72;;;1.90;;
45944;SDS011;31655;48.972;10.686;2023-09-19T12:24:31;2.90;;;2.13;;
45944;SDS011;31655;48.972;10.686;2023-09-19T12:27:01;2.75;;;2.13;;
45944;SDS011;31655;48.972;10.686;2023-09-19T12:29:32;3.35;;;2.22;;
45944;SDS011;31655;48.972;10.686;2023-09-19T12:32:06;5.85;;;2.42;;
45944;SDS011;31655;48.972;10.686;2023-09-19T12:34:33;1.92;;;1.73;;
45944;SDS011;31655;48.972;10.686;2023-09-19T12:39:53;3.03;;;1.90;;
45944;SDS011;31655;48.972;10.686;2023-09-19T12:42:39;3.53;;;2.22;;
45944;SDS011;31655;48.972;10.686;2023-09-19T12:45:06;1.60;;;0.98;;
45944;SDS011;31655;48.972;10.686;2023-09-19T12:47:34;1.85;;;1.27;;
45944;SDS011;31655;48.972;10.686;2023-09-19T12:50:13;3.72;;;1.77;;
45944;SDS011;31655;48.972;10.686;2023-09-19T12:52:41;5.78;;;1.75;;
45944;SDS011;31655;48.972;10.686;2023-09-19T12:58:16;4.10;;;1.70;;
45944;SDS011;31655;48.972;10.686;2023-09-19T13:00:44;2.38;;;1.42;;
45944;SDS011;31655;48.972;10.686;2023-09-19T13:03:12;1.65;;;1.20;;
45944;SDS011;31655;48.972;10.686;2023-09-19T13:05:50;2.75;;;1.65;;
45944;SDS011;31655;48.972;10.686;2023-09-19T13:08:31;3.97;;;2.00;;
45944;SDS011;31655;48.972;10.686;2023-09-19T13:11:01;3.53;;;1.60;;
45944;SDS011;31655;48.972;10.686;2023-09-19T13:16:11;1.63;;;1.52;;
45944;SDS011;31655;48.972;10.686;2023-09-19T13:18:47;3.20;;;1.90;;
45944;SDS011;31655;48.972;10.686;2023-09-19T13:21:16;1.55;;;1.35;;
45944;SDS011;31655;48.972;10.686;2023-09-19T13:23:52;2.03;;;1.65;;
45944;SDS011;31655;48.972;10.686;2023-09-19T13:26:27;1.55;;;1.30;;
45944;SDS011;31655;48.972;10.686;2023-09-19T13:28:54;2.30;;;1.83;;
45944;SDS011;31655;48.972;10.686;2023-09-19T13:31:19;3.72;;;1.42;;
45944;SDS011;31655;48.972;10.686;2023-09-19T13:33:47;1.85;;;1.65;;
45944;SDS011;31655;48.972;10.686;2023-09-19T13:36:13;2.97;;;1.50;;
45944;SDS011;31655;48.972;10.686;2023-09-19T13:38:42;5.55;;;2.03;;
45944;SDS011;31655;48.972;10.686;2023-09-19T13:41:11;2.00;;;1.30;;
45944;SDS011;31655;48.972;10.686;2023-09-19T13:43:38;3.92;;;1.75;;
45944;SDS011;31655;48.972;10.686;2023-09-19T13:46:05;2.63;;;1.55;;
45944;SDS011;31655;48.972;10.686;2023-09-19T13:48:32;2.60;;;1.75;;
45944;SDS011;31655;48.972;10.686;2023-09-19T13:51:00;1.30;;;1.10;;
45944;SDS011;31655;48.972;10.686;2023-09-19T13:53:26;3.15;;;1.27;;
45944;SDS011;31655;48.972;10.686;2023-09-19T13:55:52;3.58;;;1.33;;
45944;SDS011;31655;48.972;10.686;2023-09-19T13:58:18;1.42;;;1.20;;
45944;SDS011;31655;48.972;10.686;2023-09-19T14:00:44;1.52;;;1.30;;
45944;SDS011;31655;48.972;10.686;2023-09-19T14:03:10;4.30;;;1.40;;
45944;SDS011;31655;48.972;10.686;2023-09-19T14:05:36;4.85;;;1.42;;
45944;SDS011;31655;48.972;10.686;2023-09-19T14:08:02;1.25;;;1.05;;
45944;SDS011;31655;48.972;10.686;2023-09-19T14:10:29;3.05;;;1.23;;
45944;SDS011;31655;48.972;10.686;2023-09-19T14:12:56;3.60;;;1.60;;
45944;SDS011;31655;48.972;10.686;2023-09-19T14:15:24;2.60;;;1.17;;
45944;SDS011;31655;48.972;10.686;2023-09-19T14:17:54;3.78;;;1.48;;
45944;SDS011;31655;48.972;10.686;2023-09-19T14:20:24;1.80;;;1.33;;
45944;SDS011;31655;48.972;10.686;2023-09-19T14:22:51;4.10;;;1.60;;
45944;SDS011;31655;48.972;10.686;2023-09-19T14:25:17;1.65;;;1.42;;
45944;SDS011;31655;48.972;10.686;2023-09-19T14:27:43;1.33;;;1.23;;
45944;SDS011;31655;48.972;10.686;2023-09-19T14:30:09;1.92;;;1.55;;
45944;SDS011;31655;48.972;10.686;2023-09-19T14:32:35;2.97;;;1.27;;
45944;SDS011;31655;48.972;10.686;2023-09-19T14:35:02;3.00;;;2.35;;
45944;SDS011;31655;48.972;10.686;2023-09-19T14:37:31;2.88;;;1.30;;
45944;SDS011;31655;48.972;10.686;2023-09-19T14:39:57;4.13;;;1.52;;
45944;SDS011;31655;48.972;10.686;2023-09-19T14:42:23;3.45;;;1.60;;
45944;SDS011;31655;48.972;10.686;2023-09-19T14:44:49;2.53;;;1.25;;
45944;SDS011;31655;48.972;10.686;2023-09-19T14:47:15;4.72;;;1.75;;
45944;SDS011;31655;48.972;10.686;2023-09-19T14:49:42;2.75;;;1.73;;
45944;SDS011;31655;48.972;10.686;2023-09-19T14:52:08;3.20;;;1.58;;
45944;SDS011;31655;48.972;10.686;2023-09-19T14:54:35;2.00;;;1.45;;
45944;SDS011;31655;48.972;10.686;2023-09-19T14:57:03;2.30;;;1.30;;
45944;SDS011;31655;48.972;10.686;2023-09-19T14:59:32;2.45;;;1.65;;
45944;SDS011;31655;48.972;10.686;2023-09-19T15:02:05;2.33;;;1.70;;
45944;SDS011;31655;48.972;10.686;2023-09-19T15:04:31;1.83;;;1.58;;
45944;SDS011;31655;48.972;10.686;2023-09-19T15:06:58;3.10;;;1.50;;
45944;SDS011;31655;48.972;10.686;2023-09-19T15:09:24;2.78;;;1.52;;
45944;SDS011;31655;48.972;10.686;2023-09-19T15:11:54;4.72;;;1.67;;
45944;SDS011;31655;48.972;10.686;2023-09-19T15:14:20;2.33;;;1.33;;
45944;SDS011;31655;48.972;10.686;2023-09-19T15:16:47;2.97;;;1.45;;
45944;SDS011;31655;48.972;10.686;2023-09-19T15:19:13;3.45;;;1.60;;
45944;SDS011;31655;48.972;10.686;2023-09-19T15:21:39;3.17;;;1.50;;
45944;SDS011;31655;48.972;10.686;2023-09-19T15:24:06;2.58;;;1.67;;
45944;SDS011;31655;48.972;10.686;2023-09-19T15:26:35;3.20;;;1.40;;
45944;SDS011;31655;48.972;10.686;2023-09-19T15:29:04;1.60;;;1.20;;
45944;SDS011;31655;48.972;10.686;2023-09-19T15:31:30;1.67;;;1.58;;
45944;SDS011;31655;48.972;10.686;2023-09-19T15:33:56;3.03;;;1.73;;
45944;SDS011;31655;48.972;10.686;2023-09-19T15:36:22;2.30;;;1.70;;
45944;SDS011;31655;48.972;10.686;2023-09-19T15:41:28;2.38;;;1.65;;